Portada
METAR-TAF:

METAR-TAF

Aeroports :

Hagi, Japó

latitud: 34-40N, longitud: 131-48E, altitud: 54 m

Observació

L'informe es va fer fa 22 minuts, a les 03:23 UTC
Vent 9 kt del Sud/Sud-Oest, variant entre Sud i Oest/Sud-Oest
Temperatura 18°C
Humitat 88%
Pressió 1013 hPa
Visibilitat: 3000 m
Escasses núvols a una alçada de 700 ft
Núvols disperses a una alçada de 3000 ft
Cel ennuvolat a una alçada de 4000 ft
xàfecs de pluja, boirina

METAR: RJOW 180323Z 21009KT 180V240 3000 R11/2000N SHRA BR FEW007 SCT030 BKN040 18/16 Q1013 RMK 1ST007 3CU030 7CU040 A2993

Hora: 12:45 (03:45 UTC)


TAF: manca

Observacions i pronòstics meteorològics de més de 4000 aeroports (METAR i TAF).

Les estacions disponibles són els punts grocs i vermells al mapa.

Posi el ratolí al punt desitjat per veure el nom de l'estació.

Feu clic per veure les observacions i els pronòstics meteorològics.

Per canviar el mapa: feu clic els botons verds amb una creu de color negre per apropar; al botó verd amb un guió per allunyar la imatge; o en les fletxes verdes per a mapes adjacents.


METAR-TAF: